createdAt,value
2022-12-31T00:01:28.595Z,13.90
2022-12-31T00:03:59.343Z,13.90
2022-12-31T00:06:31.387Z,14.00
2022-12-31T00:09:07.060Z,14.00
2022-12-31T00:11:39.054Z,14.10
2022-12-31T00:14:08.545Z,14.10
2022-12-31T00:16:40.302Z,14.20
2022-12-31T00:19:12.984Z,14.10
2022-12-31T00:21:41.206Z,14.10
2022-12-31T00:24:13.097Z,14.00
2022-12-31T00:26:41.331Z,14.10
2022-12-31T00:29:09.541Z,13.90
2022-12-31T00:31:40.302Z,14.10
2022-12-31T00:34:09.062Z,14.30
2022-12-31T00:36:42.529Z,13.90
2022-12-31T00:39:13.184Z,14.00
2022-12-31T00:41:43.704Z,14.00
2022-12-31T00:44:13.517Z,13.70
2022-12-31T00:49:10.428Z,13.80
2022-12-31T00:51:38.969Z,13.90
2022-12-31T00:54:08.520Z,14.00
2022-12-31T00:56:38.503Z,14.00
2022-12-31T00:59:06.839Z,14.10
2022-12-31T01:01:38.224Z,14.10
2022-12-31T01:04:11.029Z,14.20
2022-12-31T01:06:40.535Z,14.10
2022-12-31T01:09:10.991Z,14.00
2022-12-31T01:11:41.040Z,14.00
2022-12-31T01:14:12.379Z,14.10
2022-12-31T01:16:45.337Z,14.00
2022-12-31T01:19:18.741Z,14.00
2022-12-31T01:21:49.333Z,13.90
2022-12-31T01:24:18.193Z,13.90
2022-12-31T01:26:48.489Z,13.90
2022-12-31T01:29:17.291Z,13.90
2022-12-31T01:31:46.306Z,13.90
2022-12-31T01:34:15.093Z,13.90
2022-12-31T01:36:43.842Z,13.90
2022-12-31T01:39:12.849Z,14.00
2022-12-31T01:41:46.189Z,14.10
2022-12-31T01:44:55.803Z,14.20
2022-12-31T01:47:38.953Z,14.20
2022-12-31T01:50:17.239Z,14.20
2022-12-31T01:52:51.500Z,14.20
2022-12-31T01:55:27.251Z,14.10
2022-12-31T01:58:01.693Z,14.20
2022-12-31T02:00:33.023Z,14.10
2022-12-31T02:03:01.759Z,14.20
2022-12-31T02:05:37.360Z,14.20
2022-12-31T02:08:07.252Z,14.30
2022-12-31T02:10:35.761Z,14.30
2022-12-31T02:13:04.769Z,14.40
2022-12-31T02:16:00.776Z,14.50
2022-12-31T02:18:38.287Z,14.60
2022-12-31T02:21:38.293Z,14.60
2022-12-31T02:24:58.083Z,14.80
2022-12-31T02:27:46.469Z,14.90
2022-12-31T02:30:26.157Z,14.80
2022-12-31T02:33:10.502Z,14.70
2022-12-31T02:35:50.228Z,14.60
2022-12-31T02:38:25.541Z,14.70
2022-12-31T02:40:55.719Z,14.60
2022-12-31T02:43:25.093Z,14.60
2022-12-31T02:46:12.633Z,14.60
2022-12-31T02:48:50.304Z,14.60
2022-12-31T02:51:38.216Z,14.80
2022-12-31T02:54:32.284Z,14.90
2022-12-31T02:57:11.751Z,15.00
2022-12-31T03:00:10.303Z,15.10
2022-12-31T03:02:44.911Z,15.20
2022-12-31T03:05:17.270Z,15.10
2022-12-31T03:07:46.897Z,15.10
2022-12-31T03:10:15.689Z,15.10
2022-12-31T03:12:47.192Z,15.20
2022-12-31T03:15:23.584Z,15.30
2022-12-31T03:17:58.157Z,15.20
2022-12-31T03:20:48.929Z,15.10
2022-12-31T03:23:23.329Z,15.20
2022-12-31T03:25:50.840Z,15.00
2022-12-31T03:28:22.496Z,14.90
2022-12-31T03:30:54.010Z,14.90
2022-12-31T03:33:25.377Z,15.00
2022-12-31T03:35:54.743Z,14.90
2022-12-31T03:38:22.907Z,15.00
2022-12-31T03:40:54.343Z,15.20
2022-12-31T03:43:22.513Z,15.20
2022-12-31T03:45:52.445Z,15.30
2022-12-31T03:48:24.338Z,15.60
2022-12-31T03:50:52.866Z,15.40
2022-12-31T03:53:22.100Z,15.40
2022-12-31T03:55:53.112Z,15.50
2022-12-31T03:58:22.625Z,15.50
2022-12-31T04:00:51.162Z,15.60
2022-12-31T04:03:19.945Z,15.50
2022-12-31T04:05:55.337Z,15.50
2022-12-31T04:08:23.827Z,15.50
2022-12-31T04:10:52.458Z,15.50
2022-12-31T04:13:20.663Z,15.50
2022-12-31T04:15:52.154Z,15.50
2022-12-31T04:18:20.413Z,15.50
2022-12-31T04:20:49.064Z,15.60
2022-12-31T04:23:19.204Z,15.50
2022-12-31T04:25:47.402Z,15.50
2022-12-31T04:28:15.917Z,15.60
2022-12-31T04:30:45.103Z,15.70
2022-12-31T04:33:13.283Z,15.60
2022-12-31T04:35:42.010Z,15.60
2022-12-31T04:38:10.500Z,15.40
2022-12-31T04:41:00.698Z,15.40
2022-12-31T04:43:28.940Z,15.30
2022-12-31T04:45:57.473Z,15.30
2022-12-31T04:48:25.759Z,15.40
2022-12-31T04:50:54.263Z,15.50
2022-12-31T04:53:22.984Z,15.40
2022-12-31T04:55:53.456Z,15.40
2022-12-31T04:58:21.706Z,15.40
2022-12-31T05:00:54.755Z,15.40
2022-12-31T05:03:26.494Z,15.40
2022-12-31T05:05:56.047Z,15.60
2022-12-31T05:08:24.186Z,15.60
2022-12-31T05:10:53.705Z,15.50
2022-12-31T05:13:22.113Z,15.40
2022-12-31T05:15:50.383Z,15.30
2022-12-31T05:18:18.968Z,15.40
2022-12-31T05:20:48.654Z,15.40
2022-12-31T05:23:19.010Z,15.40
2022-12-31T05:25:49.478Z,15.40
2022-12-31T05:28:19.729Z,15.40
2022-12-31T05:30:50.972Z,15.40
2022-12-31T05:33:20.154Z,15.30
2022-12-31T05:35:49.029Z,15.30
2022-12-31T05:38:18.022Z,15.30
2022-12-31T05:40:46.796Z,15.40
2022-12-31T05:43:15.542Z,15.30
2022-12-31T05:45:45.117Z,15.30
2022-12-31T05:48:13.676Z,15.40
2022-12-31T05:50:42.362Z,15.30
2022-12-31T05:53:10.609Z,15.40
2022-12-31T05:55:39.055Z,15.60
2022-12-31T05:58:07.665Z,15.50
2022-12-31T06:00:35.828Z,15.50
2022-12-31T06:03:05.638Z,15.60
2022-12-31T06:05:34.601Z,15.50
2022-12-31T06:08:02.777Z,15.30
2022-12-31T06:10:31.549Z,15.40
2022-12-31T06:12:59.689Z,15.40
2022-12-31T06:15:27.858Z,15.30
2022-12-31T06:17:56.389Z,15.20
2022-12-31T06:20:25.975Z,15.30
2022-12-31T06:22:54.652Z,15.40
2022-12-31T06:25:22.748Z,15.40
2022-12-31T06:27:51.558Z,15.30
2022-12-31T06:30:19.815Z,15.30
2022-12-31T06:32:48.384Z,15.30
2022-12-31T06:35:16.718Z,15.30
2022-12-31T06:37:46.499Z,15.20
2022-12-31T06:40:16.224Z,15.20
2022-12-31T06:42:44.412Z,15.30
2022-12-31T06:45:12.938Z,15.20
2022-12-31T06:47:41.927Z,15.20
2022-12-31T06:50:10.752Z,15.20
2022-12-31T06:52:39.475Z,15.10
2022-12-31T06:55:11.606Z,15.10
2022-12-31T06:57:41.528Z,15.00
2022-12-31T07:00:13.575Z,15.00
2022-12-31T07:03:16.874Z,15.00
2022-12-31T07:05:52.371Z,15.00
2022-12-31T07:08:50.723Z,15.10
2022-12-31T07:11:27.850Z,15.20
2022-12-31T07:14:18.987Z,15.20
2022-12-31T07:17:07.424Z,15.30
2022-12-31T07:19:57.537Z,15.30
2022-12-31T07:22:27.185Z,15.40
2022-12-31T07:24:56.604Z,15.40
2022-12-31T07:27:49.432Z,15.40
2022-12-31T07:30:30.085Z,15.50
2022-12-31T07:33:29.666Z,15.60
2022-12-31T07:36:16.948Z,15.70
2022-12-31T07:38:57.498Z,15.70
2022-12-31T07:41:44.091Z,15.70
2022-12-31T07:44:38.887Z,15.70
2022-12-31T07:47:22.363Z,15.60
2022-12-31T07:49:51.763Z,15.60
2022-12-31T07:52:21.788Z,15.60
2022-12-31T07:54:50.557Z,15.60
2022-12-31T07:57:21.994Z,15.70
2022-12-31T08:00:07.037Z,15.70
2022-12-31T08:03:11.867Z,15.70
2022-12-31T08:05:54.330Z,15.70
2022-12-31T08:08:37.476Z,15.80
2022-12-31T08:11:20.750Z,15.90
2022-12-31T08:13:50.299Z,15.90
2022-12-31T08:16:22.243Z,15.80
2022-12-31T08:18:51.233Z,15.90
2022-12-31T08:21:35.357Z,15.90
2022-12-31T08:24:20.214Z,15.90
2022-12-31T08:27:03.782Z,15.90
2022-12-31T08:29:44.768Z,15.90
2022-12-31T08:32:24.907Z,15.90
2022-12-31T08:35:07.271Z,15.90
2022-12-31T08:37:43.390Z,15.90
2022-12-31T08:40:25.225Z,15.90
2022-12-31T08:43:18.504Z,16.10
2022-12-31T08:45:50.855Z,16.00
2022-12-31T08:48:33.413Z,16.00
2022-12-31T08:51:02.268Z,16.00
2022-12-31T08:53:31.215Z,16.00
2022-12-31T08:56:10.276Z,16.00
2022-12-31T08:58:52.679Z,16.00
2022-12-31T09:01:27.707Z,16.10
2022-12-31T09:04:16.987Z,16.10
2022-12-31T09:06:57.632Z,16.20
2022-12-31T09:09:39.464Z,16.10
2022-12-31T09:12:20.311Z,16.10
2022-12-31T09:14:55.378Z,16.10
2022-12-31T09:17:44.930Z,16.10
2022-12-31T09:20:26.109Z,16.10
2022-12-31T09:22:57.376Z,16.10
2022-12-31T09:25:28.381Z,16.10
2022-12-31T09:28:18.093Z,16.10
2022-12-31T09:30:59.237Z,16.20
2022-12-31T09:33:44.206Z,16.20
2022-12-31T09:36:23.168Z,16.20
2022-12-31T09:39:04.383Z,16.20
2022-12-31T09:42:18.591Z,16.30
2022-12-31T09:45:09.464Z,16.30
2022-12-31T09:48:23.433Z,16.40
2022-12-31T09:51:13.803Z,16.40
2022-12-31T09:54:18.322Z,16.40
2022-12-31T09:57:04.484Z,16.40
2022-12-31T09:59:46.678Z,16.40
2022-12-31T10:02:41.818Z,16.30
2022-12-31T10:05:44.536Z,16.40
2022-12-31T10:08:44.141Z,16.50
2022-12-31T10:11:27.854Z,16.60
2022-12-31T10:14:25.759Z,16.60
2022-12-31T10:17:23.699Z,16.70
2022-12-31T10:20:28.263Z,16.80
2022-12-31T10:23:25.548Z,16.90
2022-12-31T10:26:29.384Z,17.00
2022-12-31T10:29:14.113Z,17.30
2022-12-31T10:32:00.925Z,17.50
2022-12-31T10:34:48.525Z,17.80
2022-12-31T10:37:20.862Z,17.90
2022-12-31T10:40:05.798Z,18.20
2022-12-31T10:43:49.619Z,18.80
2022-12-31T10:46:43.317Z,19.10
2022-12-31T10:50:17.142Z,19.20
2022-12-31T10:53:34.296Z,19.40
2022-12-31T10:57:07.463Z,19.60
2022-12-31T11:00:11.493Z,19.60
2022-12-31T11:03:37.085Z,19.60
2022-12-31T11:06:55.526Z,19.70
2022-12-31T11:10:16.618Z,19.90
2022-12-31T11:13:43.880Z,20.30
2022-12-31T11:16:39.383Z,20.40
2022-12-31T11:19:22.610Z,20.50
2022-12-31T11:22:23.253Z,20.50
2022-12-31T11:25:21.709Z,20.70
2022-12-31T11:28:16.584Z,21.00
2022-12-31T11:31:10.276Z,21.30
2022-12-31T11:34:02.158Z,21.40
2022-12-31T11:36:43.286Z,21.60
2022-12-31T11:39:45.830Z,22.00
2022-12-31T11:47:22.058Z,21.60
2022-12-31T11:50:21.872Z,21.90
2022-12-31T11:52:58.100Z,22.10
2022-12-31T11:55:59.062Z,22.20
2022-12-31T11:58:28.659Z,22.40
2022-12-31T12:01:02.438Z,22.70
2022-12-31T12:03:31.722Z,23.10
2022-12-31T12:06:01.362Z,23.20
2022-12-31T12:08:33.633Z,23.00
2022-12-31T12:11:09.208Z,22.60
2022-12-31T12:13:37.291Z,22.20
2022-12-31T12:16:10.329Z,21.70
2022-12-31T12:18:47.829Z,21.20
2022-12-31T12:21:21.724Z,20.60
2022-12-31T12:23:58.750Z,20.30
2022-12-31T12:26:35.845Z,19.90
2022-12-31T12:29:12.902Z,19.80
2022-12-31T12:31:42.160Z,19.60
2022-12-31T12:34:26.404Z,19.50
2022-12-31T12:36:56.021Z,19.30
2022-12-31T12:39:28.077Z,19.30
2022-12-31T12:42:08.954Z,19.30
2022-12-31T12:44:37.200Z,19.40
2022-12-31T12:47:09.672Z,19.40
2022-12-31T12:49:42.272Z,19.40
2022-12-31T12:52:57.831Z,19.40
2022-12-31T12:55:39.540Z,19.40
2022-12-31T12:58:30.912Z,19.30
2022-12-31T13:01:12.285Z,19.20
2022-12-31T13:04:33.850Z,19.30
2022-12-31T13:07:23.812Z,19.30
2022-12-31T13:10:34.079Z,19.40
2022-12-31T13:13:24.256Z,19.30
2022-12-31T13:16:09.361Z,19.30
2022-12-31T13:18:53.896Z,19.30
2022-12-31T13:21:35.947Z,19.20
2022-12-31T13:24:18.011Z,19.30
2022-12-31T13:26:56.690Z,19.30
2022-12-31T13:29:29.194Z,19.30
2022-12-31T13:32:02.441Z,19.30
2022-12-31T13:34:35.889Z,19.20
2022-12-31T13:37:19.934Z,19.20
2022-12-31T13:39:58.981Z,19.20
2022-12-31T13:42:38.236Z,19.20
2022-12-31T13:45:17.911Z,19.10
2022-12-31T13:47:53.274Z,19.10
2022-12-31T13:50:31.024Z,19.10
2022-12-31T13:53:06.426Z,19.10
2022-12-31T13:55:41.134Z,18.90
2022-12-31T13:58:22.717Z,18.90
2022-12-31T14:00:57.465Z,19.00
2022-12-31T14:03:39.759Z,18.80
2022-12-31T14:06:22.960Z,18.80
2022-12-31T14:08:53.275Z,18.70
2022-12-31T14:11:42.321Z,18.60
2022-12-31T14:14:28.569Z,18.50
2022-12-31T14:17:06.607Z,18.50
2022-12-31T14:19:52.288Z,18.40
2022-12-31T14:22:31.103Z,18.30
2022-12-31T14:25:03.545Z,18.30
2022-12-31T14:27:38.150Z,18.30
2022-12-31T14:30:16.861Z,18.20
2022-12-31T14:33:14.067Z,18.20
2022-12-31T14:36:02.823Z,18.10
2022-12-31T14:38:53.943Z,18.00
2022-12-31T14:41:40.925Z,17.90
2022-12-31T14:44:34.907Z,18.00
2022-12-31T14:47:27.260Z,17.90
2022-12-31T14:50:07.246Z,17.80
2022-12-31T14:52:50.412Z,17.80
2022-12-31T14:55:31.355Z,17.80
2022-12-31T14:58:27.664Z,17.70
2022-12-31T15:00:56.209Z,17.70
2022-12-31T15:03:37.936Z,17.60
2022-12-31T15:06:55.527Z,17.60
2022-12-31T15:09:57.447Z,17.60
2022-12-31T15:12:47.620Z,17.70
2022-12-31T15:15:44.984Z,17.50
2022-12-31T15:18:58.947Z,17.40
2022-12-31T15:22:05.377Z,17.40
2022-12-31T15:24:44.107Z,17.30
2022-12-31T15:27:35.468Z,17.40
2022-12-31T15:30:07.837Z,17.20
2022-12-31T15:32:40.877Z,17.10
2022-12-31T15:35:30.591Z,17.20
2022-12-31T15:38:02.204Z,17.20
2022-12-31T15:40:31.690Z,17.20
2022-12-31T15:43:09.417Z,17.10
2022-12-31T15:45:41.958Z,17.10
2022-12-31T15:48:19.114Z,17.00
2022-12-31T15:50:55.174Z,17.60
2022-12-31T15:53:32.172Z,17.00
2022-12-31T15:56:03.427Z,16.90
2022-12-31T15:58:35.840Z,16.80
2022-12-31T16:01:14.151Z,16.90
2022-12-31T16:03:48.906Z,17.00
2022-12-31T16:06:19.936Z,17.00
2022-12-31T16:08:51.113Z,17.10
2022-12-31T16:11:20.226Z,17.00
2022-12-31T16:13:54.578Z,17.10
2022-12-31T16:16:26.715Z,17.00
2022-12-31T16:18:56.609Z,16.90
2022-12-31T16:21:34.122Z,16.90
2022-12-31T16:24:06.789Z,16.90
2022-12-31T16:26:45.406Z,17.00
2022-12-31T16:29:16.535Z,16.90
2022-12-31T16:31:48.084Z,16.80
2022-12-31T16:34:22.177Z,16.80
2022-12-31T16:37:00.841Z,16.70
2022-12-31T16:39:33.278Z,16.70
2022-12-31T16:42:20.429Z,16.60
2022-12-31T16:44:53.608Z,16.60
2022-12-31T16:47:27.257Z,16.60
2022-12-31T16:50:04.065Z,16.50
2022-12-31T16:52:39.071Z,16.60
2022-12-31T16:55:11.398Z,16.50
2022-12-31T16:57:40.404Z,16.50
2022-12-31T17:00:17.438Z,16.50
2022-12-31T17:02:58.266Z,16.50
2022-12-31T17:05:29.277Z,16.40
2022-12-31T17:07:59.246Z,16.40
2022-12-31T17:10:36.774Z,16.50
2022-12-31T17:13:39.309Z,16.30
2022-12-31T17:16:08.397Z,16.20
2022-12-31T17:18:39.627Z,16.10
2022-12-31T17:21:11.609Z,16.00
2022-12-31T17:23:43.677Z,16.20
2022-12-31T17:26:16.243Z,15.90
2022-12-31T17:28:48.949Z,15.90
2022-12-31T17:31:36.783Z,16.00
2022-12-31T17:34:24.453Z,15.50
2022-12-31T17:37:23.658Z,15.60
2022-12-31T17:39:55.308Z,15.40
2022-12-31T17:42:31.294Z,15.30
2022-12-31T17:45:03.583Z,15.20
2022-12-31T17:47:38.166Z,15.10
2022-12-31T17:50:22.913Z,15.10
2022-12-31T17:52:51.357Z,14.90
2022-12-31T17:55:21.670Z,14.80
2022-12-31T17:57:54.231Z,14.90
2022-12-31T18:00:26.413Z,14.60
2022-12-31T18:02:54.972Z,14.60
2022-12-31T18:05:26.163Z,14.50
2022-12-31T18:07:55.070Z,14.00
2022-12-31T18:10:28.861Z,14.30
2022-12-31T18:12:58.885Z,14.30
2022-12-31T18:15:27.115Z,14.30
2022-12-31T18:17:55.347Z,14.40
2022-12-31T18:20:24.970Z,14.20
2022-12-31T18:22:56.155Z,14.30
2022-12-31T18:25:25.872Z,14.50
2022-12-31T18:27:54.518Z,14.50
2022-12-31T18:30:23.434Z,14.50
2022-12-31T18:32:52.479Z,14.50
2022-12-31T18:38:16.088Z,14.40
2022-12-31T18:40:54.881Z,14.90
2022-12-31T18:43:24.487Z,14.80
2022-12-31T18:45:54.405Z,15.00
2022-12-31T18:48:27.059Z,15.00
2022-12-31T18:50:55.256Z,15.10
2022-12-31T18:53:24.960Z,15.50
2022-12-31T18:55:57.042Z,15.30
2022-12-31T18:58:25.857Z,15.40
2022-12-31T19:00:54.502Z,15.40
2022-12-31T19:03:27.348Z,15.40
2022-12-31T19:05:55.648Z,15.70
2022-12-31T19:08:25.214Z,15.40
2022-12-31T19:10:54.895Z,15.30
2022-12-31T19:13:23.617Z,15.30
2022-12-31T19:15:55.557Z,15.50
2022-12-31T19:18:23.690Z,15.60
2022-12-31T19:20:53.570Z,15.70
2022-12-31T19:23:22.595Z,15.70
2022-12-31T19:25:51.416Z,15.80
2022-12-31T19:28:26.534Z,16.00
2022-12-31T19:30:55.469Z,16.10
2022-12-31T19:33:23.746Z,16.10
2022-12-31T19:35:51.939Z,16.10
2022-12-31T19:38:23.735Z,16.00
2022-12-31T19:40:54.113Z,16.10
2022-12-31T19:43:30.207Z,16.20
2022-12-31T19:45:58.480Z,16.30
2022-12-31T19:48:32.720Z,16.30
2022-12-31T19:51:01.643Z,16.20
2022-12-31T19:53:29.965Z,16.20
2022-12-31T19:55:58.114Z,16.20
2022-12-31T19:58:29.461Z,16.50
2022-12-31T22:57:02.657Z,16.10
2022-12-31T22:59:31.544Z,16.10
2022-12-31T23:01:59.778Z,15.90
2022-12-31T23:04:28.262Z,15.90
2022-12-31T23:06:56.483Z,15.90
2022-12-31T23:09:42.701Z,15.80
2022-12-31T23:12:12.726Z,15.80
2022-12-31T23:15:01.079Z,15.70
2022-12-31T23:17:50.326Z,15.60
2022-12-31T23:20:41.999Z,15.60
2022-12-31T23:23:16.361Z,15.50
2022-12-31T23:25:47.180Z,15.50
2022-12-31T23:28:20.875Z,15.30
2022-12-31T23:30:50.640Z,15.50
2022-12-31T23:33:22.015Z,15.50
2022-12-31T23:35:51.442Z,15.60
2022-12-31T23:38:20.053Z,15.50
2022-12-31T23:40:48.479Z,15.40
2022-12-31T23:43:23.763Z,15.40
2022-12-31T23:45:53.484Z,15.40
2022-12-31T23:48:21.932Z,15.30
2022-12-31T23:50:53.758Z,15.30
2022-12-31T23:53:23.278Z,15.30
2022-12-31T23:55:51.750Z,15.30
2022-12-31T23:58:22.920Z,15.30
